CheckWX is a tool to help pilots better visualize weather data.  It is not intended as a substitute for an official pre-flight weather briefing.

03:17:13 UTC

KP59 METAR
Copper Harbor Airport
Michigan, USA
Current

26 mins ago

KP59 260251Z AUTO 34011G23KT 13/07 A2987 RMK AO1 PK WND 33026/0235 SLP113 T01280072 $
Observed
May-26 @ 02:51 UTC
Wind
  • 340° at 11 KTS
  • Gusting to 23 KTS
Visibility
Temperature
13°C / 55°F
Dewpoint
C / 45°F
Humidity
67%
Altimeter
29.87" Hg
Pressure
1011.52 hPa
Previous

1 hour ago

KP59 260151Z AUTO 34012G21KT 14/08 A2984 RMK AO1 SLP104 T01440078 $
Observed
May-26 @ 01:51 UTC
Wind
  • 340° at 12 KTS
  • Gusting to 21 KTS
Visibility
Temperature
14°C / 57°F
Dewpoint
C / 46°F
Humidity
67%
Altimeter
29.84" Hg
Pressure
1010.52 hPa
Previous

2 hours ago

KP59 260051Z AUTO 33012G21KT 15/08 A2982 RMK AO1 PK WND 32026/0000 SLP098 T01500078 $
Observed
May-26 @ 00:51 UTC
Wind
  • 330° at 12 KTS
  • Gusting to 21 KTS
Visibility
Temperature
15°C / 59°F
Dewpoint
C / 46°F
Humidity
63%
Altimeter
29.82" Hg
Pressure
1009.82 hPa